sensor_id;sensor_type;location;lat;lon;timestamp;P1;durP1;ratioP1;P2;durP2;ratioP2
19285;SDS011;9776;50.798;6.430;2023-07-24T00:00:12;3.63;;;2.20;;
19285;SDS011;9776;50.798;6.430;2023-07-24T00:02:39;4.40;;;2.42;;
19285;SDS011;9776;50.798;6.430;2023-07-24T00:05:06;3.75;;;2.45;;
19285;SDS011;9776;50.798;6.430;2023-07-24T00:07:35;3.70;;;2.33;;
19285;SDS011;9776;50.798;6.430;2023-07-24T00:10:01;4.55;;;2.70;;
19285;SDS011;9776;50.798;6.430;2023-07-24T00:12:28;3.80;;;1.98;;
19285;SDS011;9776;50.798;6.430;2023-07-24T00:14:54;3.53;;;2.50;;
19285;SDS011;9776;50.798;6.430;2023-07-24T00:17:21;5.53;;;2.30;;
19285;SDS011;9776;50.798;6.430;2023-07-24T00:19:48;3.88;;;2.33;;
19285;SDS011;9776;50.798;6.430;2023-07-24T00:22:15;3.75;;;2.30;;
19285;SDS011;9776;50.798;6.430;2023-07-24T00:24:43;4.45;;;2.25;;
19285;SDS011;9776;50.798;6.430;2023-07-24T00:27:09;4.57;;;2.60;;
19285;SDS011;9776;50.798;6.430;2023-07-24T00:29:36;5.47;;;2.75;;
19285;SDS011;9776;50.798;6.430;2023-07-24T00:32:03;3.42;;;2.40;;
19285;SDS011;9776;50.798;6.430;2023-07-24T00:34:30;6.57;;;2.60;;
19285;SDS011;9776;50.798;6.430;2023-07-24T00:36:56;4.25;;;2.40;;
19285;SDS011;9776;50.798;6.430;2023-07-24T00:39:23;4.00;;;2.67;;
19285;SDS011;9776;50.798;6.430;2023-07-24T00:41:54;4.60;;;2.65;;
19285;SDS011;9776;50.798;6.430;2023-07-24T00:44:21;5.10;;;2.90;;
19285;SDS011;9776;50.798;6.430;2023-07-24T00:46:48;2.90;;;2.20;;
19285;SDS011;9776;50.798;6.430;2023-07-24T00:49:15;4.72;;;2.47;;
19285;SDS011;9776;50.798;6.430;2023-07-24T00:51:42;3.17;;;2.13;;
19285;SDS011;9776;50.798;6.430;2023-07-24T00:54:10;4.40;;;2.35;;
19285;SDS011;9776;50.798;6.430;2023-07-24T00:56:37;3.30;;;2.22;;
19285;SDS011;9776;50.798;6.430;2023-07-24T00:59:05;4.00;;;2.53;;
19285;SDS011;9776;50.798;6.430;2023-07-24T01:01:32;4.68;;;2.55;;
19285;SDS011;9776;50.798;6.430;2023-07-24T01:03:59;4.70;;;1.98;;
19285;SDS011;9776;50.798;6.430;2023-07-24T01:06:29;4.43;;;2.20;;
19285;SDS011;9776;50.798;6.430;2023-07-24T01:08:55;3.15;;;2.30;;
19285;SDS011;9776;50.798;6.430;2023-07-24T01:11:23;4.47;;;2.20;;
19285;SDS011;9776;50.798;6.430;2023-07-24T01:13:56;3.63;;;1.88;;
19285;SDS011;9776;50.798;6.430;2023-07-24T01:16:28;2.97;;;2.20;;
19285;SDS011;9776;50.798;6.430;2023-07-24T01:19:02;3.25;;;2.28;;
19285;SDS011;9776;50.798;6.430;2023-07-24T01:21:38;5.07;;;2.10;;
19285;SDS011;9776;50.798;6.430;2023-07-24T01:24:14;5.13;;;2.55;;
19285;SDS011;9776;50.798;6.430;2023-07-24T01:26:51;3.47;;;2.20;;
19285;SDS011;9776;50.798;6.430;2023-07-24T01:29:18;4.43;;;2.15;;
19285;SDS011;9776;50.798;6.430;2023-07-24T01:31:45;5.63;;;2.20;;
19285;SDS011;9776;50.798;6.430;2023-07-24T01:34:11;4.50;;;2.20;;
19285;SDS011;9776;50.798;6.430;2023-07-24T01:36:38;4.93;;;2.15;;
19285;SDS011;9776;50.798;6.430;2023-07-24T01:39:05;3.67;;;2.25;;
19285;SDS011;9776;50.798;6.430;2023-07-24T01:41:32;4.82;;;2.30;;
19285;SDS011;9776;50.798;6.430;2023-07-24T01:44:00;4.15;;;2.40;;
19285;SDS011;9776;50.798;6.430;2023-07-24T01:46:27;4.18;;;2.30;;
19285;SDS011;9776;50.798;6.430;2023-07-24T01:48:54;3.58;;;2.30;;
19285;SDS011;9776;50.798;6.430;2023-07-24T01:51:20;3.72;;;2.08;;
19285;SDS011;9776;50.798;6.430;2023-07-24T01:53:47;4.28;;;2.47;;
19285;SDS011;9776;50.798;6.430;2023-07-24T01:56:13;4.78;;;2.42;;
19285;SDS011;9776;50.798;6.430;2023-07-24T01:58:40;5.85;;;2.50;;
19285;SDS011;9776;50.798;6.430;2023-07-24T02:01:08;3.90;;;2.28;;
19285;SDS011;9776;50.798;6.430;2023-07-24T02:03:35;3.95;;;2.30;;
19285;SDS011;9776;50.798;6.430;2023-07-24T02:06:01;3.67;;;2.20;;
19285;SDS011;9776;50.798;6.430;2023-07-24T02:08:28;3.55;;;2.10;;
19285;SDS011;9776;50.798;6.430;2023-07-24T02:10:54;4.72;;;2.42;;
19285;SDS011;9776;50.798;6.430;2023-07-24T02:13:21;6.47;;;2.80;;
19285;SDS011;9776;50.798;6.430;2023-07-24T02:15:48;4.45;;;2.47;;
19285;SDS011;9776;50.798;6.430;2023-07-24T02:18:16;5.30;;;2.80;;
19285;SDS011;9776;50.798;6.430;2023-07-24T02:20:48;6.32;;;2.70;;
19285;SDS011;9776;50.798;6.430;2023-07-24T02:23:15;4.78;;;2.80;;
19285;SDS011;9776;50.798;6.430;2023-07-24T02:25:42;4.40;;;2.53;;
19285;SDS011;9776;50.798;6.430;2023-07-24T02:28:09;3.65;;;2.75;;
19285;SDS011;9776;50.798;6.430;2023-07-24T02:30:37;4.25;;;2.42;;
19285;SDS011;9776;50.798;6.430;2023-07-24T02:33:04;4.15;;;2.60;;
19285;SDS011;9776;50.798;6.430;2023-07-24T02:35:32;4.28;;;2.40;;
19285;SDS011;9776;50.798;6.430;2023-07-24T02:38:04;4.43;;;2.40;;
19285;SDS011;9776;50.798;6.430;2023-07-24T02:40:31;4.25;;;2.65;;
19285;SDS011;9776;50.798;6.430;2023-07-24T02:42:58;5.45;;;2.67;;
19285;SDS011;9776;50.798;6.430;2023-07-24T02:45:24;4.18;;;2.60;;
19285;SDS011;9776;50.798;6.430;2023-07-24T02:47:51;4.88;;;2.63;;
19285;SDS011;9776;50.798;6.430;2023-07-24T02:50:18;5.55;;;2.80;;
19285;SDS011;9776;50.798;6.430;2023-07-24T02:52:46;4.63;;;2.50;;
19285;SDS011;9776;50.798;6.430;2023-07-24T02:55:12;3.35;;;2.10;;
19285;SDS011;9776;50.798;6.430;2023-07-24T02:57:39;4.13;;;2.53;;
19285;SDS011;9776;50.798;6.430;2023-07-24T03:00:06;5.63;;;2.55;;
19285;SDS011;9776;50.798;6.430;2023-07-24T03:02:33;3.88;;;2.50;;
19285;SDS011;9776;50.798;6.430;2023-07-24T03:05:00;3.75;;;2.65;;
19285;SDS011;9776;50.798;6.430;2023-07-24T03:07:27;5.53;;;2.80;;
19285;SDS011;9776;50.798;6.430;2023-07-24T03:09:55;3.70;;;2.60;;
19285;SDS011;9776;50.798;6.430;2023-07-24T03:12:21;4.05;;;2.95;;
19285;SDS011;9776;50.798;6.430;2023-07-24T03:14:48;4.88;;;2.40;;
19285;SDS011;9776;50.798;6.430;2023-07-24T03:17:15;4.25;;;2.65;;
19285;SDS011;9776;50.798;6.430;2023-07-24T03:19:41;5.43;;;2.67;;
19285;SDS011;9776;50.798;6.430;2023-07-24T03:22:08;4.90;;;2.75;;
19285;SDS011;9776;50.798;6.430;2023-07-24T03:24:35;5.53;;;2.33;;
19285;SDS011;9776;50.798;6.430;2023-07-24T03:27:03;3.55;;;2.47;;
19285;SDS011;9776;50.798;6.430;2023-07-24T03:29:30;4.70;;;2.90;;
19285;SDS011;9776;50.798;6.430;2023-07-24T03:31:56;5.32;;;2.90;;
19285;SDS011;9776;50.798;6.430;2023-07-24T03:34:23;4.13;;;2.60;;
19285;SDS011;9776;50.798;6.430;2023-07-24T03:36:50;4.75;;;2.40;;
19285;SDS011;9776;50.798;6.430;2023-07-24T03:39:16;4.35;;;2.70;;
19285;SDS011;9776;50.798;6.430;2023-07-24T03:41:43;5.90;;;2.80;;
19285;SDS011;9776;50.798;6.430;2023-07-24T03:44:11;5.70;;;2.65;;
19285;SDS011;9776;50.798;6.430;2023-07-24T03:46:37;4.50;;;2.90;;
19285;SDS011;9776;50.798;6.430;2023-07-24T03:49:04;5.50;;;2.88;;
19285;SDS011;9776;50.798;6.430;2023-07-24T03:51:31;5.63;;;2.80;;
19285;SDS011;9776;50.798;6.430;2023-07-24T03:53:58;4.72;;;2.67;;
19285;SDS011;9776;50.798;6.430;2023-07-24T03:56:25;5.57;;;2.80;;
19285;SDS011;9776;50.798;6.430;2023-07-24T03:58:52;4.38;;;2.90;;
19285;SDS011;9776;50.798;6.430;2023-07-24T04:01:20;3.53;;;2.75;;
19285;SDS011;9776;50.798;6.430;2023-07-24T04:03:47;5.35;;;2.90;;
19285;SDS011;9776;50.798;6.430;2023-07-24T04:06:13;4.40;;;2.80;;
19285;SDS011;9776;50.798;6.430;2023-07-24T04:08:40;5.95;;;2.80;;
19285;SDS011;9776;50.798;6.430;2023-07-24T04:11:07;4.65;;;2.80;;
19285;SDS011;9776;50.798;6.430;2023-07-24T04:13:33;5.88;;;2.78;;
19285;SDS011;9776;50.798;6.430;2023-07-24T04:16:00;4.40;;;2.80;;
19285;SDS011;9776;50.798;6.430;2023-07-24T04:18:28;4.85;;;3.00;;
19285;SDS011;9776;50.798;6.430;2023-07-24T04:20:55;4.18;;;2.67;;
19285;SDS011;9776;50.798;6.430;2023-07-24T04:23:24;7.22;;;2.80;;
19285;SDS011;9776;50.798;6.430;2023-07-24T04:25:53;5.25;;;2.85;;
19285;SDS011;9776;50.798;6.430;2023-07-24T04:28:19;3.72;;;2.67;;
19285;SDS011;9776;50.798;6.430;2023-07-24T04:30:46;5.07;;;2.85;;
19285;SDS011;9776;50.798;6.430;2023-07-24T04:33:13;3.75;;;2.50;;
19285;SDS011;9776;50.798;6.430;2023-07-24T04:35:42;3.92;;;2.70;;
19285;SDS011;9776;50.798;6.430;2023-07-24T04:38:08;5.07;;;2.85;;
19285;SDS011;9776;50.798;6.430;2023-07-24T04:40:35;4.70;;;2.70;;
19285;SDS011;9776;50.798;6.430;2023-07-24T04:43:02;4.43;;;2.47;;
19285;SDS011;9776;50.798;6.430;2023-07-24T04:45:29;5.20;;;2.55;;
19285;SDS011;9776;50.798;6.430;2023-07-24T04:47:55;4.82;;;2.65;;
19285;SDS011;9776;50.798;6.430;2023-07-24T04:50:22;3.08;;;2.20;;
19285;SDS011;9776;50.798;6.430;2023-07-24T04:52:50;5.20;;;2.90;;
19285;SDS011;9776;50.798;6.430;2023-07-24T04:55:17;4.07;;;2.67;;
19285;SDS011;9776;50.798;6.430;2023-07-24T04:57:43;6.15;;;2.85;;
19285;SDS011;9776;50.798;6.430;2023-07-24T05:00:10;6.50;;;3.08;;
19285;SDS011;9776;50.798;6.430;2023-07-24T05:02:37;4.90;;;2.92;;
19285;SDS011;9776;50.798;6.430;2023-07-24T05:05:05;6.25;;;2.88;;
19285;SDS011;9776;50.798;6.430;2023-07-24T05:07:32;4.43;;;2.60;;
19285;SDS011;9776;50.798;6.430;2023-07-24T05:10:00;5.90;;;2.90;;
19285;SDS011;9776;50.798;6.430;2023-07-24T05:12:26;4.20;;;2.63;;
19285;SDS011;9776;50.798;6.430;2023-07-24T05:14:53;5.13;;;2.28;;
19285;SDS011;9776;50.798;6.430;2023-07-24T05:17:20;3.78;;;2.40;;
19285;SDS011;9776;50.798;6.430;2023-07-24T05:19:46;4.20;;;2.40;;
19285;SDS011;9776;50.798;6.430;2023-07-24T05:22:13;3.70;;;2.28;;
19285;SDS011;9776;50.798;6.430;2023-07-24T05:24:39;5.50;;;2.42;;
19285;SDS011;9776;50.798;6.430;2023-07-24T05:27:07;3.65;;;2.42;;
19285;SDS011;9776;50.798;6.430;2023-07-24T05:29:34;3.67;;;2.15;;
19285;SDS011;9776;50.798;6.430;2023-07-24T05:32:01;4.35;;;2.30;;
19285;SDS011;9776;50.798;6.430;2023-07-24T05:34:27;5.28;;;2.53;;
19285;SDS011;9776;50.798;6.430;2023-07-24T05:36:54;3.65;;;2.22;;
19285;SDS011;9776;50.798;6.430;2023-07-24T05:39:20;3.47;;;2.00;;
19285;SDS011;9776;50.798;6.430;2023-07-24T05:41:47;4.60;;;2.17;;
19285;SDS011;9776;50.798;6.430;2023-07-24T05:44:15;4.82;;;2.50;;
19285;SDS011;9776;50.798;6.430;2023-07-24T05:46:42;3.20;;;2.08;;
19285;SDS011;9776;50.798;6.430;2023-07-24T05:49:09;3.15;;;2.15;;
19285;SDS011;9776;50.798;6.430;2023-07-24T05:51:35;4.72;;;1.80;;
19285;SDS011;9776;50.798;6.430;2023-07-24T05:54:02;3.97;;;2.15;;
19285;SDS011;9776;50.798;6.430;2023-07-24T05:56:29;4.38;;;1.90;;
19285;SDS011;9776;50.798;6.430;2023-07-24T05:58:55;4.38;;;2.00;;
19285;SDS011;9776;50.798;6.430;2023-07-24T06:01:23;5.00;;;2.42;;
19285;SDS011;9776;50.798;6.430;2023-07-24T06:03:50;3.03;;;1.70;;
19285;SDS011;9776;50.798;6.430;2023-07-24T06:06:16;3.92;;;1.92;;
19285;SDS011;9776;50.798;6.430;2023-07-24T06:08:44;4.43;;;2.08;;
19285;SDS011;9776;50.798;6.430;2023-07-24T06:11:12;4.53;;;2.10;;
19285;SDS011;9776;50.798;6.430;2023-07-24T06:13:39;3.53;;;1.85;;
19285;SDS011;9776;50.798;6.430;2023-07-24T06:16:05;5.35;;;2.20;;
19285;SDS011;9776;50.798;6.430;2023-07-24T06:18:33;3.85;;;2.03;;
19285;SDS011;9776;50.798;6.430;2023-07-24T06:21:00;2.92;;;1.60;;
19285;SDS011;9776;50.798;6.430;2023-07-24T06:23:27;2.90;;;1.90;;
19285;SDS011;9776;50.798;6.430;2023-07-24T06:25:54;3.85;;;2.10;;
19285;SDS011;9776;50.798;6.430;2023-07-24T06:28:20;3.38;;;1.80;;
19285;SDS011;9776;50.798;6.430;2023-07-24T06:30:47;3.38;;;1.67;;
19285;SDS011;9776;50.798;6.430;2023-07-24T06:33:14;2.90;;;1.83;;
19285;SDS011;9776;50.798;6.430;2023-07-24T06:35:42;2.88;;;1.70;;
19285;SDS011;9776;50.798;6.430;2023-07-24T06:38:08;3.35;;;1.83;;
19285;SDS011;9776;50.798;6.430;2023-07-24T06:40:35;3.08;;;1.67;;
19285;SDS011;9776;50.798;6.430;2023-07-24T06:43:01;2.38;;;1.60;;
19285;SDS011;9776;50.798;6.430;2023-07-24T06:45:28;3.42;;;1.80;;
19285;SDS011;9776;50.798;6.430;2023-07-24T06:47:55;3.92;;;2.10;;
19285;SDS011;9776;50.798;6.430;2023-07-24T06:50:21;5.28;;;2.00;;
19285;SDS011;9776;50.798;6.430;2023-07-24T06:52:49;3.95;;;2.03;;
19285;SDS011;9776;50.798;6.430;2023-07-24T06:55:18;4.88;;;2.10;;
19285;SDS011;9776;50.798;6.430;2023-07-24T06:57:45;3.45;;;2.17;;
19285;SDS011;9776;50.798;6.430;2023-07-24T07:00:12;3.38;;;1.83;;
19285;SDS011;9776;50.798;6.430;2023-07-24T07:02:39;4.15;;;2.08;;
19285;SDS011;9776;50.798;6.430;2023-07-24T07:05:06;4.05;;;2.17;;
19285;SDS011;9776;50.798;6.430;2023-07-24T07:07:33;3.97;;;2.05;;
19285;SDS011;9776;50.798;6.430;2023-07-24T07:10:01;4.22;;;2.10;;
19285;SDS011;9776;50.798;6.430;2023-07-24T07:12:27;3.38;;;2.00;;
19285;SDS011;9776;50.798;6.430;2023-07-24T07:14:54;4.78;;;2.55;;
19285;SDS011;9776;50.798;6.430;2023-07-24T07:17:21;3.53;;;2.38;;
19285;SDS011;9776;50.798;6.430;2023-07-24T07:19:47;4.10;;;2.30;;
19285;SDS011;9776;50.798;6.430;2023-07-24T07:22:14;3.72;;;2.33;;
19285;SDS011;9776;50.798;6.430;2023-07-24T07:24:41;5.28;;;2.45;;
19285;SDS011;9776;50.798;6.430;2023-07-24T07:27:09;3.58;;;2.03;;
19285;SDS011;9776;50.798;6.430;2023-07-24T07:29:36;4.53;;;2.25;;
19285;SDS011;9776;50.798;6.430;2023-07-24T07:32:03;3.50;;;2.00;;
19285;SDS011;9776;50.798;6.430;2023-07-24T07:34:30;4.07;;;2.30;;
19285;SDS011;9776;50.798;6.430;2023-07-24T07:36:56;6.00;;;2.30;;
19285;SDS011;9776;50.798;6.430;2023-07-24T07:39:23;3.55;;;2.20;;
19285;SDS011;9776;50.798;6.430;2023-07-24T07:41:50;4.13;;;2.25;;
19285;SDS011;9776;50.798;6.430;2023-07-24T07:44:18;3.72;;;2.08;;
19285;SDS011;9776;50.798;6.430;2023-07-24T07:46:44;3.65;;;2.15;;
19285;SDS011;9776;50.798;6.430;2023-07-24T07:49:11;5.15;;;2.33;;
19285;SDS011;9776;50.798;6.430;2023-07-24T07:51:38;3.33;;;2.03;;
19285;SDS011;9776;50.798;6.430;2023-07-24T07:54:04;4.05;;;2.20;;
19285;SDS011;9776;50.798;6.430;2023-07-24T07:56:31;3.20;;;1.90;;
19285;SDS011;9776;50.798;6.430;2023-07-24T07:58:57;3.88;;;1.75;;
19285;SDS011;9776;50.798;6.430;2023-07-24T08:01:25;4.07;;;2.05;;
19285;SDS011;9776;50.798;6.430;2023-07-24T08:03:52;3.38;;;2.08;;
19285;SDS011;9776;50.798;6.430;2023-07-24T08:06:18;3.05;;;1.92;;
19285;SDS011;9776;50.798;6.430;2023-07-24T08:08:46;3.72;;;1.90;;
19285;SDS011;9776;50.798;6.430;2023-07-24T08:11:12;2.83;;;1.83;;
19285;SDS011;9776;50.798;6.430;2023-07-24T08:13:39;4.13;;;1.90;;
19285;SDS011;9776;50.798;6.430;2023-07-24T08:16:12;4.32;;;1.55;;
19285;SDS011;9776;50.798;6.430;2023-07-24T08:18:44;3.90;;;1.80;;
19285;SDS011;9776;50.798;6.430;2023-07-24T08:21:11;2.95;;;1.52;;
19285;SDS011;9776;50.798;6.430;2023-07-24T08:23:38;3.50;;;1.90;;
19285;SDS011;9776;50.798;6.430;2023-07-24T08:26:05;3.80;;;1.80;;
19285;SDS011;9776;50.798;6.430;2023-07-24T08:28:32;2.38;;;1.30;;
19285;SDS011;9776;50.798;6.430;2023-07-24T08:30:59;2.00;;;1.27;;
19285;SDS011;9776;50.798;6.430;2023-07-24T08:33:27;2.33;;;1.38;;
19285;SDS011;9776;50.798;6.430;2023-07-24T08:36:00;2.47;;;1.60;;
19285;SDS011;9776;50.798;6.430;2023-07-24T08:38:27;3.35;;;1.85;;
19285;SDS011;9776;50.798;6.430;2023-07-24T08:41:04;3.53;;;1.73;;
19285;SDS011;9776;50.798;6.430;2023-07-24T08:43:32;3.15;;;1.50;;
19285;SDS011;9776;50.798;6.430;2023-07-24T08:46:00;2.30;;;1.40;;
19285;SDS011;9776;50.798;6.430;2023-07-24T08:48:28;3.03;;;1.48;;
19285;SDS011;9776;50.798;6.430;2023-07-24T08:51:00;1.90;;;1.30;;
19285;SDS011;9776;50.798;6.430;2023-07-24T08:53:27;2.63;;;1.23;;
19285;SDS011;9776;50.798;6.430;2023-07-24T08:55:55;2.05;;;1.45;;
19285;SDS011;9776;50.798;6.430;2023-07-24T08:58:22;2.50;;;1.50;;
19285;SDS011;9776;50.798;6.430;2023-07-24T09:00:49;2.28;;;1.40;;
19285;SDS011;9776;50.798;6.430;2023-07-24T09:03:17;2.05;;;1.33;;
19285;SDS011;9776;50.798;6.430;2023-07-24T09:05:44;2.67;;;1.20;;
19285;SDS011;9776;50.798;6.430;2023-07-24T09:08:12;1.75;;;1.13;;
19285;SDS011;9776;50.798;6.430;2023-07-24T09:10:39;2.08;;;1.10;;
19285;SDS011;9776;50.798;6.430;2023-07-24T09:13:06;2.20;;;1.33;;
19285;SDS011;9776;50.798;6.430;2023-07-24T09:15:39;1.88;;;1.17;;
19285;SDS011;9776;50.798;6.430;2023-07-24T09:18:06;1.83;;;1.30;;
19285;SDS011;9776;50.798;6.430;2023-07-24T09:20:37;3.90;;;1.50;;
19285;SDS011;9776;50.798;6.430;2023-07-24T09:23:05;3.42;;;1.10;;
19285;SDS011;9776;50.798;6.430;2023-07-24T09:25:34;1.95;;;1.20;;
19285;SDS011;9776;50.798;6.430;2023-07-24T09:28:08;1.83;;;0.98;;
19285;SDS011;9776;50.798;6.430;2023-07-24T09:30:36;2.70;;;1.13;;
19285;SDS011;9776;50.798;6.430;2023-07-24T09:33:03;2.08;;;1.30;;
19285;SDS011;9776;50.798;6.430;2023-07-24T09:35:30;2.17;;;1.40;;
19285;SDS011;9776;50.798;6.430;2023-07-24T09:38:03;3.25;;;1.38;;
19285;SDS011;9776;50.798;6.430;2023-07-24T09:40:39;2.03;;;1.23;;
19285;SDS011;9776;50.798;6.430;2023-07-24T09:43:19;2.42;;;1.40;;
19285;SDS011;9776;50.798;6.430;2023-07-24T09:45:47;2.08;;;1.23;;
19285;SDS011;9776;50.798;6.430;2023-07-24T09:48:15;2.63;;;1.23;;
19285;SDS011;9776;50.798;6.430;2023-07-24T09:50:44;1.95;;;1.10;;
19285;SDS011;9776;50.798;6.430;2023-07-24T09:53:13;3.28;;;1.60;;
19285;SDS011;9776;50.798;6.430;2023-07-24T09:55:49;1.85;;;1.20;;
19285;SDS011;9776;50.798;6.430;2023-07-24T09:58:23;1.77;;;1.13;;
19285;SDS011;9776;50.798;6.430;2023-07-24T10:00:51;2.10;;;1.10;;
19285;SDS011;9776;50.798;6.430;2023-07-24T10:03:18;3.70;;;1.30;;
19285;SDS011;9776;50.798;6.430;2023-07-24T10:05:46;1.98;;;1.10;;
19285;SDS011;9776;50.798;6.430;2023-07-24T10:08:14;2.80;;;1.20;;
19285;SDS011;9776;50.798;6.430;2023-07-24T10:10:42;2.20;;;1.20;;
19285;SDS011;9776;50.798;6.430;2023-07-24T10:13:10;2.38;;;1.20;;
19285;SDS011;9776;50.798;6.430;2023-07-24T10:15:40;2.85;;;1.10;;
19285;SDS011;9776;50.798;6.430;2023-07-24T10:18:08;1.73;;;1.15;;
19285;SDS011;9776;50.798;6.430;2023-07-24T10:20:35;1.88;;;1.17;;
19285;SDS011;9776;50.798;6.430;2023-07-24T10:23:03;3.22;;;1.38;;
19285;SDS011;9776;50.798;6.430;2023-07-24T10:25:30;2.20;;;1.20;;
19285;SDS011;9776;50.798;6.430;2023-07-24T10:28:02;2.80;;;1.40;;
19285;SDS011;9776;50.798;6.430;2023-07-24T10:30:33;2.40;;;1.60;;
19285;SDS011;9776;50.798;6.430;2023-07-24T10:33:05;2.13;;;1.38;;
19285;SDS011;9776;50.798;6.430;2023-07-24T10:35:40;2.00;;;1.30;;
19285;SDS011;9776;50.798;6.430;2023-07-24T10:38:08;1.77;;;1.17;;
19285;SDS011;9776;50.798;6.430;2023-07-24T10:40:35;2.17;;;1.15;;
19285;SDS011;9776;50.798;6.430;2023-07-24T10:43:04;1.77;;;1.10;;
19285;SDS011;9776;50.798;6.430;2023-07-24T10:45:39;2.15;;;1.40;;
19285;SDS011;9776;50.798;6.430;2023-07-24T10:48:07;2.88;;;1.33;;
19285;SDS011;9776;50.798;6.430;2023-07-24T10:50:37;1.75;;;1.10;;
19285;SDS011;9776;50.798;6.430;2023-07-24T10:53:04;1.80;;;1.23;;
19285;SDS011;9776;50.798;6.430;2023-07-24T10:55:31;2.42;;;1.13;;
19285;SDS011;9776;50.798;6.430;2023-07-24T10:57:57;1.70;;;0.90;;
19285;SDS011;9776;50.798;6.430;2023-07-24T11:00:25;2.08;;;1.10;;
19285;SDS011;9776;50.798;6.430;2023-07-24T11:02:53;1.77;;;1.17;;
19285;SDS011;9776;50.798;6.430;2023-07-24T11:05:21;1.60;;;0.95;;
19285;SDS011;9776;50.798;6.430;2023-07-24T11:07:47;3.03;;;1.33;;
19285;SDS011;9776;50.798;6.430;2023-07-24T11:10:15;3.35;;;1.10;;
19285;SDS011;9776;50.798;6.430;2023-07-24T11:12:42;3.47;;;1.30;;
19285;SDS011;9776;50.798;6.430;2023-07-24T11:15:09;4.53;;;1.15;;
19285;SDS011;9776;50.798;6.430;2023-07-24T11:17:37;3.22;;;1.00;;
19285;SDS011;9776;50.798;6.430;2023-07-24T11:20:10;2.70;;;0.98;;
19285;SDS011;9776;50.798;6.430;2023-07-24T11:22:38;2.22;;;1.20;;
19285;SDS011;9776;50.798;6.430;2023-07-24T11:25:06;2.58;;;1.20;;
19285;SDS011;9776;50.798;6.430;2023-07-24T11:27:37;1.83;;;1.05;;
19285;SDS011;9776;50.798;6.430;2023-07-24T11:30:05;1.80;;;0.95;;
19285;SDS011;9776;50.798;6.430;2023-07-24T11:32:32;2.08;;;1.08;;
19285;SDS011;9776;50.798;6.430;2023-07-24T11:34:58;2.92;;;1.20;;
19285;SDS011;9776;50.798;6.430;2023-07-24T11:37:28;1.88;;;1.00;;
19285;SDS011;9776;50.798;6.430;2023-07-24T11:39:56;1.40;;;1.00;;
19285;SDS011;9776;50.798;6.430;2023-07-24T11:42:24;1.40;;;1.00;;
19285;SDS011;9776;50.798;6.430;2023-07-24T11:44:52;1.38;;;0.50;;
19285;SDS011;9776;50.798;6.430;2023-07-24T11:47:19;1.50;;;0.55;;
19285;SDS011;9776;50.798;6.430;2023-07-24T11:49:55;0.88;;;0.40;;
19285;SDS011;9776;50.798;6.430;2023-07-24T11:52:22;0.60;;;0.35;;
19285;SDS011;9776;50.798;6.430;2023-07-24T11:54:56;2.40;;;0.60;;
19285;SDS011;9776;50.798;6.430;2023-07-24T11:57:26;0.80;;;0.40;;
19285;SDS011;9776;50.798;6.430;2023-07-24T11:59:53;1.10;;;0.45;;
19285;SDS011;9776;50.798;6.430;2023-07-24T12:02:22;0.73;;;0.35;;
19285;SDS011;9776;50.798;6.430;2023-07-24T12:04:53;1.90;;;0.30;;
19285;SDS011;9776;50.798;6.430;2023-07-24T12:07:23;0.80;;;0.38;;
19285;SDS011;9776;50.798;6.430;2023-07-24T12:09:50;0.47;;;0.30;;
19285;SDS011;9776;50.798;6.430;2023-07-24T12:12:19;0.80;;;0.40;;
19285;SDS011;9776;50.798;6.430;2023-07-24T12:14:46;0.80;;;0.32;;
19285;SDS011;9776;50.798;6.430;2023-07-24T12:17:17;0.85;;;0.50;;
19285;SDS011;9776;50.798;6.430;2023-07-24T12:19:45;1.00;;;0.45;;
19285;SDS011;9776;50.798;6.430;2023-07-24T12:22:12;0.73;;;0.50;;
19285;SDS011;9776;50.798;6.430;2023-07-24T12:24:38;1.30;;;0.60;;
19285;SDS011;9776;50.798;6.430;2023-07-24T12:27:05;1.95;;;0.75;;
19285;SDS011;9776;50.798;6.430;2023-07-24T12:29:33;1.02;;;0.50;;
19285;SDS011;9776;50.798;6.430;2023-07-24T12:32:00;1.02;;;0.60;;
19285;SDS011;9776;50.798;6.430;2023-07-24T12:34:26;1.42;;;0.70;;
19285;SDS011;9776;50.798;6.430;2023-07-24T12:36:53;1.52;;;0.80;;
19285;SDS011;9776;50.798;6.430;2023-07-24T12:39:20;1.38;;;0.80;;
19285;SDS011;9776;50.798;6.430;2023-07-24T12:41:46;2.08;;;0.77;;
19285;SDS011;9776;50.798;6.430;2023-07-24T12:44:13;1.27;;;0.70;;
19285;SDS011;9776;50.798;6.430;2023-07-24T12:46:41;2.25;;;0.80;;
19285;SDS011;9776;50.798;6.430;2023-07-24T12:49:07;1.25;;;0.60;;
19285;SDS011;9776;50.798;6.430;2023-07-24T12:51:34;1.90;;;0.70;;
19285;SDS011;9776;50.798;6.430;2023-07-24T12:54:00;1.58;;;0.77;;
19285;SDS011;9776;50.798;6.430;2023-07-24T12:56:27;1.42;;;0.68;;
19285;SDS011;9776;50.798;6.430;2023-07-24T12:58:54;2.58;;;1.00;;
19285;SDS011;9776;50.798;6.430;2023-07-24T13:01:20;1.42;;;0.65;;
19285;SDS011;9776;50.798;6.430;2023-07-24T13:03:50;1.20;;;0.60;;
19285;SDS011;9776;50.798;6.430;2023-07-24T13:06:17;1.70;;;0.70;;
19285;SDS011;9776;50.798;6.430;2023-07-24T13:08:43;2.03;;;0.85;;
19285;SDS011;9776;50.798;6.430;2023-07-24T13:11:10;2.45;;;1.02;;
19285;SDS011;9776;50.798;6.430;2023-07-24T13:13:37;1.90;;;1.08;;
19285;SDS011;9776;50.798;6.430;2023-07-24T13:16:04;1.20;;;0.70;;
19285;SDS011;9776;50.798;6.430;2023-07-24T13:18:30;1.75;;;0.80;;
19285;SDS011;9776;50.798;6.430;2023-07-24T13:20:58;0.88;;;0.65;;
19285;SDS011;9776;50.798;6.430;2023-07-24T13:23:25;1.98;;;0.50;;
19285;SDS011;9776;50.798;6.430;2023-07-24T13:25:52;1.23;;;0.73;;
19285;SDS011;9776;50.798;6.430;2023-07-24T13:28:19;1.50;;;0.70;;
19285;SDS011;9776;50.798;6.430;2023-07-24T13:30:45;2.63;;;0.70;;
19285;SDS011;9776;50.798;6.430;2023-07-24T13:33:12;1.85;;;0.73;;
19285;SDS011;9776;50.798;6.430;2023-07-24T13:35:39;1.70;;;0.70;;
19285;SDS011;9776;50.798;6.430;2023-07-24T13:38:07;1.85;;;0.77;;
19285;SDS011;9776;50.798;6.430;2023-07-24T13:40:34;3.05;;;0.60;;
19285;SDS011;9776;50.798;6.430;2023-07-24T13:43:00;1.52;;;0.68;;
19285;SDS011;9776;50.798;6.430;2023-07-24T13:45:28;2.33;;;0.77;;
19285;SDS011;9776;50.798;6.430;2023-07-24T13:47:56;1.40;;;0.68;;
19285;SDS011;9776;50.798;6.430;2023-07-24T13:50:24;0.77;;;0.47;;
19285;SDS011;9776;50.798;6.430;2023-07-24T13:52:50;2.40;;;0.75;;
19285;SDS011;9776;50.798;6.430;2023-07-24T13:55:18;1.70;;;0.63;;
19285;SDS011;9776;50.798;6.430;2023-07-24T13:57:45;1.85;;;0.80;;
19285;SDS011;9776;50.798;6.430;2023-07-24T14:00:12;1.70;;;0.93;;
19285;SDS011;9776;50.798;6.430;2023-07-24T14:02:39;2.08;;;0.60;;
19285;SDS011;9776;50.798;6.430;2023-07-24T14:05:06;1.30;;;0.60;;
19285;SDS011;9776;50.798;6.430;2023-07-24T14:07:34;1.10;;;0.65;;
19285;SDS011;9776;50.798;6.430;2023-07-24T14:10:01;2.05;;;0.60;;
19285;SDS011;9776;50.798;6.430;2023-07-24T14:12:29;0.82;;;0.60;;
19285;SDS011;9776;50.798;6.430;2023-07-24T14:14:55;1.15;;;0.77;;
19285;SDS011;9776;50.798;6.430;2023-07-24T14:17:22;1.10;;;0.68;;
19285;SDS011;9776;50.798;6.430;2023-07-24T14:19:48;1.23;;;0.70;;
19285;SDS011;9776;50.798;6.430;2023-07-24T14:22:15;1.35;;;0.60;;
19285;SDS011;9776;50.798;6.430;2023-07-24T14:24:42;1.45;;;0.80;;
19285;SDS011;9776;50.798;6.430;2023-07-24T14:27:09;2.22;;;0.85;;
19285;SDS011;9776;50.798;6.430;2023-07-24T14:29:37;3.15;;;1.00;;
19285;SDS011;9776;50.798;6.430;2023-07-24T14:32:05;1.30;;;0.93;;
19285;SDS011;9776;50.798;6.430;2023-07-24T14:34:33;1.38;;;0.80;;
19285;SDS011;9776;50.798;6.430;2023-07-24T14:37:00;1.52;;;0.90;;
19285;SDS011;9776;50.798;6.430;2023-07-24T14:39:26;1.52;;;1.00;;
19285;SDS011;9776;50.798;6.430;2023-07-24T14:41:53;1.88;;;1.02;;
19285;SDS011;9776;50.798;6.430;2023-07-24T14:44:19;2.13;;;1.10;;
19285;SDS011;9776;50.798;6.430;2023-07-24T14:46:48;1.25;;;0.90;;
19285;SDS011;9776;50.798;6.430;2023-07-24T14:49:15;2.00;;;1.20;;
19285;SDS011;9776;50.798;6.430;2023-07-24T14:51:42;2.42;;;1.40;;
19285;SDS011;9776;50.798;6.430;2023-07-24T14:54:08;2.03;;;1.13;;
19285;SDS011;9776;50.798;6.430;2023-07-24T14:56:35;2.10;;;1.23;;
19285;SDS011;9776;50.798;6.430;2023-07-24T14:59:02;2.60;;;1.20;;
19285;SDS011;9776;50.798;6.430;2023-07-24T15:01:28;2.15;;;1.20;;